sensor_id;sensor_type;location;lat;lon;timestamp;P1;durP1;ratioP1;P2;durP2;ratioP2
6133;SDS011;3098;42.678;23.364;2022-12-07T00:02:01;20.70;;;5.33;;
6133;SDS011;3098;42.678;23.364;2022-12-07T00:04:31;20.83;;;4.57;;
6133;SDS011;3098;42.678;23.364;2022-12-07T00:06:59;11.20;;;5.03;;
6133;SDS011;3098;42.678;23.364;2022-12-07T00:09:28;9.80;;;4.37;;
6133;SDS011;3098;42.678;23.364;2022-12-07T00:11:56;6.17;;;4.47;;
6133;SDS011;3098;42.678;23.364;2022-12-07T00:14:25;9.30;;;3.77;;
6133;SDS011;3098;42.678;23.364;2022-12-07T00:16:54;14.87;;;5.63;;
6133;SDS011;3098;42.678;23.364;2022-12-07T00:19:24;9.47;;;3.97;;
6133;SDS011;3098;42.678;23.364;2022-12-07T00:21:57;9.23;;;3.37;;
6133;SDS011;3098;42.678;23.364;2022-12-07T00:24:25;8.87;;;3.63;;
6133;SDS011;3098;42.678;23.364;2022-12-07T00:26:56;11.07;;;5.20;;
6133;SDS011;3098;42.678;23.364;2022-12-07T00:29:28;10.53;;;4.07;;
6133;SDS011;3098;42.678;23.364;2022-12-07T00:31:56;13.80;;;4.83;;
6133;SDS011;3098;42.678;23.364;2022-12-07T00:34:23;9.23;;;4.60;;
6133;SDS011;3098;42.678;23.364;2022-12-07T00:36:54;17.70;;;4.03;;
6133;SDS011;3098;42.678;23.364;2022-12-07T00:39:25;18.40;;;4.87;;
6133;SDS011;3098;42.678;23.364;2022-12-07T00:41:54;11.10;;;4.17;;
6133;SDS011;3098;42.678;23.364;2022-12-07T00:44:23;25.67;;;5.67;;
6133;SDS011;3098;42.678;23.364;2022-12-07T00:46:57;10.53;;;4.77;;
6133;SDS011;3098;42.678;23.364;2022-12-07T00:49:28;12.93;;;3.97;;
6133;SDS011;3098;42.678;23.364;2022-12-07T00:51:57;12.10;;;4.47;;
6133;SDS011;3098;42.678;23.364;2022-12-07T00:54:28;11.13;;;4.57;;
6133;SDS011;3098;42.678;23.364;2022-12-07T00:56:57;12.63;;;5.13;;
6133;SDS011;3098;42.678;23.364;2022-12-07T00:59:27;7.80;;;3.83;;
6133;SDS011;3098;42.678;23.364;2022-12-07T01:01:57;9.97;;;4.63;;
6133;SDS011;3098;42.678;23.364;2022-12-07T01:04:25;9.47;;;4.67;;
6133;SDS011;3098;42.678;23.364;2022-12-07T01:06:57;18.77;;;4.33;;
6133;SDS011;3098;42.678;23.364;2022-12-07T01:09:30;12.27;;;5.43;;
6133;SDS011;3098;42.678;23.364;2022-12-07T01:11:57;17.97;;;4.30;;
6133;SDS011;3098;42.678;23.364;2022-12-07T01:14:25;11.80;;;5.37;;
6133;SDS011;3098;42.678;23.364;2022-12-07T01:16:54;12.43;;;4.13;;
6133;SDS011;3098;42.678;23.364;2022-12-07T01:19:25;6.50;;;3.77;;
6133;SDS011;3098;42.678;23.364;2022-12-07T01:21:53;6.53;;;3.30;;
6133;SDS011;3098;42.678;23.364;2022-12-07T01:24:22;8.80;;;3.90;;
6133;SDS011;3098;42.678;23.364;2022-12-07T01:26:53;11.60;;;4.63;;
6133;SDS011;3098;42.678;23.364;2022-12-07T01:29:26;11.87;;;6.13;;
6133;SDS011;3098;42.678;23.364;2022-12-07T01:31:59;11.30;;;5.17;;
6133;SDS011;3098;42.678;23.364;2022-12-07T01:34:28;11.40;;;4.97;;
6133;SDS011;3098;42.678;23.364;2022-12-07T01:36:55;8.90;;;4.63;;
6133;SDS011;3098;42.678;23.364;2022-12-07T01:39:23;10.53;;;4.50;;
6133;SDS011;3098;42.678;23.364;2022-12-07T01:41:55;15.47;;;5.17;;
6133;SDS011;3098;42.678;23.364;2022-12-07T01:44:24;18.30;;;4.83;;
6133;SDS011;3098;42.678;23.364;2022-12-07T01:46:55;10.03;;;4.83;;
6133;SDS011;3098;42.678;23.364;2022-12-07T01:49:26;11.80;;;5.27;;
6133;SDS011;3098;42.678;23.364;2022-12-07T01:52:01;10.23;;;4.23;;
6133;SDS011;3098;42.678;23.364;2022-12-07T01:54:37;8.80;;;4.87;;
6133;SDS011;3098;42.678;23.364;2022-12-07T01:57:05;13.53;;;5.30;;
6133;SDS011;3098;42.678;23.364;2022-12-07T01:59:34;6.37;;;3.70;;
6133;SDS011;3098;42.678;23.364;2022-12-07T02:02:03;9.73;;;5.07;;
6133;SDS011;3098;42.678;23.364;2022-12-07T02:04:36;13.53;;;4.57;;
6133;SDS011;3098;42.678;23.364;2022-12-07T02:07:04;13.97;;;5.03;;
6133;SDS011;3098;42.678;23.364;2022-12-07T02:09:31;10.57;;;5.00;;
6133;SDS011;3098;42.678;23.364;2022-12-07T02:11:59;7.97;;;4.13;;
6133;SDS011;3098;42.678;23.364;2022-12-07T02:14:28;10.93;;;5.13;;
6133;SDS011;3098;42.678;23.364;2022-12-07T02:16:59;11.30;;;4.30;;
6133;SDS011;3098;42.678;23.364;2022-12-07T02:22:40;14.20;;;6.47;;
6133;SDS011;3098;42.678;23.364;2022-12-07T02:25:35;10.50;;;4.77;;
6133;SDS011;3098;42.678;23.364;2022-12-07T02:28:25;13.93;;;5.33;;
6133;SDS011;3098;42.678;23.364;2022-12-07T02:31:03;12.10;;;4.97;;
6133;SDS011;3098;42.678;23.364;2022-12-07T02:33:40;9.57;;;4.77;;
6133;SDS011;3098;42.678;23.364;2022-12-07T02:36:14;11.50;;;3.87;;
6133;SDS011;3098;42.678;23.364;2022-12-07T02:38:50;17.70;;;6.03;;
6133;SDS011;3098;42.678;23.364;2022-12-07T02:41:24;8.07;;;5.23;;
6133;SDS011;3098;42.678;23.364;2022-12-07T02:43:57;8.63;;;4.13;;
6133;SDS011;3098;42.678;23.364;2022-12-07T02:46:32;17.93;;;4.77;;
6133;SDS011;3098;42.678;23.364;2022-12-07T02:49:04;11.83;;;4.40;;
6133;SDS011;3098;42.678;23.364;2022-12-07T02:51:38;8.10;;;3.80;;
6133;SDS011;3098;42.678;23.364;2022-12-07T02:54:09;13.03;;;4.47;;
6133;SDS011;3098;42.678;23.364;2022-12-07T02:56:41;13.17;;;4.17;;
6133;SDS011;3098;42.678;23.364;2022-12-07T02:59:17;9.37;;;4.17;;
6133;SDS011;3098;42.678;23.364;2022-12-07T03:01:58;11.00;;;4.00;;
6133;SDS011;3098;42.678;23.364;2022-12-07T03:04:38;7.97;;;4.70;;
6133;SDS011;3098;42.678;23.364;2022-12-07T03:07:15;13.50;;;5.13;;
6133;SDS011;3098;42.678;23.364;2022-12-07T03:09:50;10.67;;;5.10;;
6133;SDS011;3098;42.678;23.364;2022-12-07T03:12:27;13.07;;;4.60;;
6133;SDS011;3098;42.678;23.364;2022-12-07T03:15:02;14.57;;;5.07;;
6133;SDS011;3098;42.678;23.364;2022-12-07T03:17:35;9.73;;;5.17;;
6133;SDS011;3098;42.678;23.364;2022-12-07T03:20:07;14.53;;;6.93;;
6133;SDS011;3098;42.678;23.364;2022-12-07T03:22:38;14.00;;;6.03;;
6133;SDS011;3098;42.678;23.364;2022-12-07T03:25:09;12.40;;;5.47;;
6133;SDS011;3098;42.678;23.364;2022-12-07T03:27:39;12.47;;;5.73;;
6133;SDS011;3098;42.678;23.364;2022-12-07T03:30:12;16.27;;;4.50;;
6133;SDS011;3098;42.678;23.364;2022-12-07T03:32:44;16.13;;;6.13;;
6133;SDS011;3098;42.678;23.364;2022-12-07T03:35:17;14.23;;;5.63;;
6133;SDS011;3098;42.678;23.364;2022-12-07T03:37:49;10.17;;;5.00;;
6133;SDS011;3098;42.678;23.364;2022-12-07T03:40:22;12.43;;;4.17;;
6133;SDS011;3098;42.678;23.364;2022-12-07T03:42:52;17.77;;;7.17;;
6133;SDS011;3098;42.678;23.364;2022-12-07T03:45:21;14.20;;;5.93;;
6133;SDS011;3098;42.678;23.364;2022-12-07T03:47:59;9.27;;;5.40;;
6133;SDS011;3098;42.678;23.364;2022-12-07T03:50:36;11.73;;;3.87;;
6133;SDS011;3098;42.678;23.364;2022-12-07T03:53:08;15.90;;;5.07;;
6133;SDS011;3098;42.678;23.364;2022-12-07T03:55:40;10.27;;;5.30;;
6133;SDS011;3098;42.678;23.364;2022-12-07T03:58:11;7.93;;;4.27;;
6133;SDS011;3098;42.678;23.364;2022-12-07T04:00:42;14.00;;;4.63;;
6133;SDS011;3098;42.678;23.364;2022-12-07T04:03:11;9.80;;;4.37;;
6133;SDS011;3098;42.678;23.364;2022-12-07T04:05:39;22.10;;;4.43;;
6133;SDS011;3098;42.678;23.364;2022-12-07T04:08:07;23.53;;;5.17;;
6133;SDS011;3098;42.678;23.364;2022-12-07T04:10:34;11.97;;;4.77;;
6133;SDS011;3098;42.678;23.364;2022-12-07T04:13:01;9.10;;;4.00;;
6133;SDS011;3098;42.678;23.364;2022-12-07T04:15:28;15.57;;;5.10;;
6133;SDS011;3098;42.678;23.364;2022-12-07T04:17:55;9.30;;;3.37;;
6133;SDS011;3098;42.678;23.364;2022-12-07T04:20:25;15.60;;;5.70;;
6133;SDS011;3098;42.678;23.364;2022-12-07T04:22:52;20.13;;;3.73;;
6133;SDS011;3098;42.678;23.364;2022-12-07T04:25:20;15.00;;;6.17;;
6133;SDS011;3098;42.678;23.364;2022-12-07T04:27:47;10.57;;;3.33;;
6133;SDS011;3098;42.678;23.364;2022-12-07T04:30:14;10.90;;;3.50;;
6133;SDS011;3098;42.678;23.364;2022-12-07T04:32:41;11.20;;;3.83;;
6133;SDS011;3098;42.678;23.364;2022-12-07T04:35:08;13.10;;;3.80;;
6133;SDS011;3098;42.678;23.364;2022-12-07T04:37:37;9.67;;;4.07;;
6133;SDS011;3098;42.678;23.364;2022-12-07T04:40:07;8.43;;;5.00;;
6133;SDS011;3098;42.678;23.364;2022-12-07T04:42:36;6.63;;;4.37;;
6133;SDS011;3098;42.678;23.364;2022-12-07T04:45:03;13.80;;;5.17;;
6133;SDS011;3098;42.678;23.364;2022-12-07T04:47:31;10.90;;;3.77;;
6133;SDS011;3098;42.678;23.364;2022-12-07T04:50:00;16.23;;;4.87;;
6133;SDS011;3098;42.678;23.364;2022-12-07T04:52:27;9.90;;;4.47;;
6133;SDS011;3098;42.678;23.364;2022-12-07T04:54:56;7.70;;;3.97;;
6133;SDS011;3098;42.678;23.364;2022-12-07T04:57:23;6.33;;;3.27;;
6133;SDS011;3098;42.678;23.364;2022-12-07T04:59:51;16.40;;;5.87;;
6133;SDS011;3098;42.678;23.364;2022-12-07T05:02:18;18.67;;;5.83;;
6133;SDS011;3098;42.678;23.364;2022-12-07T05:04:45;7.07;;;4.77;;
6133;SDS011;3098;42.678;23.364;2022-12-07T05:07:12;12.87;;;4.70;;
6133;SDS011;3098;42.678;23.364;2022-12-07T05:09:39;14.60;;;4.10;;
6133;SDS011;3098;42.678;23.364;2022-12-07T05:12:07;11.80;;;5.07;;
6133;SDS011;3098;42.678;23.364;2022-12-07T05:14:35;16.90;;;3.90;;
6133;SDS011;3098;42.678;23.364;2022-12-07T05:17:02;15.20;;;5.83;;
6133;SDS011;3098;42.678;23.364;2022-12-07T05:19:29;10.30;;;3.77;;
6133;SDS011;3098;42.678;23.364;2022-12-07T05:21:56;8.17;;;4.47;;
6133;SDS011;3098;42.678;23.364;2022-12-07T05:24:23;10.00;;;5.03;;
6133;SDS011;3098;42.678;23.364;2022-12-07T05:26:50;10.70;;;4.53;;
6133;SDS011;3098;42.678;23.364;2022-12-07T05:29:19;12.27;;;5.57;;
6133;SDS011;3098;42.678;23.364;2022-12-07T05:31:46;9.13;;;4.60;;
6133;SDS011;3098;42.678;23.364;2022-12-07T05:34:13;7.83;;;4.53;;
6133;SDS011;3098;42.678;23.364;2022-12-07T05:36:40;5.83;;;3.20;;
6133;SDS011;3098;42.678;23.364;2022-12-07T05:39:07;15.23;;;4.43;;
6133;SDS011;3098;42.678;23.364;2022-12-07T05:41:35;24.30;;;5.73;;
6133;SDS011;3098;42.678;23.364;2022-12-07T05:44:22;10.13;;;4.30;;
6133;SDS011;3098;42.678;23.364;2022-12-07T05:46:50;9.37;;;4.43;;
6133;SDS011;3098;42.678;23.364;2022-12-07T05:49:17;16.90;;;6.33;;
6133;SDS011;3098;42.678;23.364;2022-12-07T05:51:44;8.63;;;4.43;;
6133;SDS011;3098;42.678;23.364;2022-12-07T05:54:11;25.77;;;5.27;;
6133;SDS011;3098;42.678;23.364;2022-12-07T05:56:38;28.27;;;6.33;;
6133;SDS011;3098;42.678;23.364;2022-12-07T05:59:05;14.30;;;4.83;;
6133;SDS011;3098;42.678;23.364;2022-12-07T06:01:54;6.63;;;3.87;;
6133;SDS011;3098;42.678;23.364;2022-12-07T06:04:23;12.80;;;4.37;;
6133;SDS011;3098;42.678;23.364;2022-12-07T06:06:51;11.80;;;5.23;;
6133;SDS011;3098;42.678;23.364;2022-12-07T06:09:19;10.77;;;5.07;;
6133;SDS011;3098;42.678;23.364;2022-12-07T06:11:47;13.20;;;5.37;;
6133;SDS011;3098;42.678;23.364;2022-12-07T06:14:32;13.33;;;4.17;;
6133;SDS011;3098;42.678;23.364;2022-12-07T06:17:00;18.10;;;5.70;;
6133;SDS011;3098;42.678;23.364;2022-12-07T06:19:27;14.27;;;6.77;;
6133;SDS011;3098;42.678;23.364;2022-12-07T06:21:54;19.13;;;5.50;;
6133;SDS011;3098;42.678;23.364;2022-12-07T06:24:22;9.70;;;3.93;;
6133;SDS011;3098;42.678;23.364;2022-12-07T06:26:50;16.90;;;6.20;;
6133;SDS011;3098;42.678;23.364;2022-12-07T06:29:18;16.97;;;4.97;;
6133;SDS011;3098;42.678;23.364;2022-12-07T06:31:46;18.73;;;6.60;;
6133;SDS011;3098;42.678;23.364;2022-12-07T06:34:16;20.20;;;6.87;;
6133;SDS011;3098;42.678;23.364;2022-12-07T06:36:44;14.20;;;5.27;;
6133;SDS011;3098;42.678;23.364;2022-12-07T06:39:16;20.90;;;6.83;;
6133;SDS011;3098;42.678;23.364;2022-12-07T06:41:44;14.50;;;5.87;;
6133;SDS011;3098;42.678;23.364;2022-12-07T06:44:11;15.23;;;5.73;;
6133;SDS011;3098;42.678;23.364;2022-12-07T06:46:38;17.03;;;6.17;;
6133;SDS011;3098;42.678;23.364;2022-12-07T06:49:05;18.00;;;6.07;;
6133;SDS011;3098;42.678;23.364;2022-12-07T06:51:35;12.43;;;5.97;;
6133;SDS011;3098;42.678;23.364;2022-12-07T06:54:06;16.33;;;5.93;;
6133;SDS011;3098;42.678;23.364;2022-12-07T06:56:34;18.73;;;5.53;;
6133;SDS011;3098;42.678;23.364;2022-12-07T06:59:03;19.13;;;6.63;;
6133;SDS011;3098;42.678;23.364;2022-12-07T07:01:33;18.00;;;6.80;;
6133;SDS011;3098;42.678;23.364;2022-12-07T07:04:00;15.17;;;6.17;;
6133;SDS011;3098;42.678;23.364;2022-12-07T07:06:27;21.40;;;7.23;;
6133;SDS011;3098;42.678;23.364;2022-12-07T07:08:57;18.60;;;7.17;;
6133;SDS011;3098;42.678;23.364;2022-12-07T07:11:25;18.20;;;6.03;;
6133;SDS011;3098;42.678;23.364;2022-12-07T07:13:52;29.67;;;7.70;;
6133;SDS011;3098;42.678;23.364;2022-12-07T07:16:22;27.30;;;8.80;;
6133;SDS011;3098;42.678;23.364;2022-12-07T07:18:50;9.27;;;5.37;;
6133;SDS011;3098;42.678;23.364;2022-12-07T07:21:18;12.40;;;5.23;;
6133;SDS011;3098;42.678;23.364;2022-12-07T07:23:48;15.17;;;5.33;;
6133;SDS011;3098;42.678;23.364;2022-12-07T07:26:17;15.73;;;5.90;;
6133;SDS011;3098;42.678;23.364;2022-12-07T07:28:44;15.10;;;7.07;;
6133;SDS011;3098;42.678;23.364;2022-12-07T07:31:11;20.50;;;6.33;;
6133;SDS011;3098;42.678;23.364;2022-12-07T07:33:38;18.80;;;7.80;;
6133;SDS011;3098;42.678;23.364;2022-12-07T07:36:06;26.90;;;8.53;;
6133;SDS011;3098;42.678;23.364;2022-12-07T07:38:34;20.98;;;5.68;;
6133;SDS011;3098;42.678;23.364;2022-12-07T07:41:01;14.95;;;5.18;;
6133;SDS011;3098;42.678;23.364;2022-12-07T07:43:30;8.10;;;4.93;;
6133;SDS011;3098;42.678;23.364;2022-12-07T07:45:58;16.95;;;6.85;;
6133;SDS011;3098;42.678;23.364;2022-12-07T07:48:26;17.75;;;7.93;;
6133;SDS011;3098;42.678;23.364;2022-12-07T07:50:54;14.55;;;6.13;;
6133;SDS011;3098;42.678;23.364;2022-12-07T07:53:21;18.92;;;8.77;;
6133;SDS011;3098;42.678;23.364;2022-12-07T07:55:51;32.67;;;9.77;;
6133;SDS011;3098;42.678;23.364;2022-12-07T07:58:20;14.88;;;8.35;;
6133;SDS011;3098;42.678;23.364;2022-12-07T08:00:48;25.83;;;9.65;;
6133;SDS011;3098;42.678;23.364;2022-12-07T08:03:17;32.97;;;11.32;;
6133;SDS011;3098;42.678;23.364;2022-12-07T08:05:47;22.25;;;9.40;;
6133;SDS011;3098;42.678;23.364;2022-12-07T08:08:18;17.52;;;8.63;;
6133;SDS011;3098;42.678;23.364;2022-12-07T08:10:45;20.75;;;8.43;;
6133;SDS011;3098;42.678;23.364;2022-12-07T08:13:15;24.85;;;9.20;;
6133;SDS011;3098;42.678;23.364;2022-12-07T08:15:43;16.77;;;7.32;;
6133;SDS011;3098;42.678;23.364;2022-12-07T08:18:13;20.60;;;6.97;;
6133;SDS011;3098;42.678;23.364;2022-12-07T08:20:42;14.35;;;5.82;;
6133;SDS011;3098;42.678;23.364;2022-12-07T08:23:09;15.63;;;6.63;;
6133;SDS011;3098;42.678;23.364;2022-12-07T08:25:38;21.70;;;9.23;;
6133;SDS011;3098;42.678;23.364;2022-12-07T08:28:06;12.00;;;6.28;;
6133;SDS011;3098;42.678;23.364;2022-12-07T08:30:34;21.77;;;7.82;;
6133;SDS011;3098;42.678;23.364;2022-12-07T08:33:03;17.60;;;7.13;;
6133;SDS011;3098;42.678;23.364;2022-12-07T08:35:34;19.10;;;8.52;;
6133;SDS011;3098;42.678;23.364;2022-12-07T08:38:01;18.65;;;8.02;;
6133;SDS011;3098;42.678;23.364;2022-12-07T08:40:29;24.58;;;8.30;;
6133;SDS011;3098;42.678;23.364;2022-12-07T08:43:00;22.25;;;6.93;;
6133;SDS011;3098;42.678;23.364;2022-12-07T08:45:30;14.32;;;7.97;;
6133;SDS011;3098;42.678;23.364;2022-12-07T08:48:01;25.05;;;9.38;;
6133;SDS011;3098;42.678;23.364;2022-12-07T08:50:34;17.55;;;8.18;;
6133;SDS011;3098;42.678;23.364;2022-12-07T08:53:04;20.00;;;7.70;;
6133;SDS011;3098;42.678;23.364;2022-12-07T08:55:33;17.02;;;8.02;;
6133;SDS011;3098;42.678;23.364;2022-12-07T08:58:01;21.80;;;8.93;;
6133;SDS011;3098;42.678;23.364;2022-12-07T09:00:33;20.80;;;7.72;;
6133;SDS011;3098;42.678;23.364;2022-12-07T09:03:00;13.55;;;7.22;;
6133;SDS011;3098;42.678;23.364;2022-12-07T09:05:28;17.08;;;7.93;;
6133;SDS011;3098;42.678;23.364;2022-12-07T09:07:57;23.02;;;9.02;;
6133;SDS011;3098;42.678;23.364;2022-12-07T09:10:28;26.77;;;10.90;;
6133;SDS011;3098;42.678;23.364;2022-12-07T09:12:55;19.60;;;9.70;;
6133;SDS011;3098;42.678;23.364;2022-12-07T09:15:26;19.58;;;8.50;;
6133;SDS011;3098;42.678;23.364;2022-12-07T09:17:53;24.10;;;9.27;;
6133;SDS011;3098;42.678;23.364;2022-12-07T09:20:21;34.75;;;9.30;;
6133;SDS011;3098;42.678;23.364;2022-12-07T09:22:48;16.50;;;8.20;;
6133;SDS011;3098;42.678;23.364;2022-12-07T09:25:18;15.82;;;7.68;;
6133;SDS011;3098;42.678;23.364;2022-12-07T09:27:48;32.92;;;9.00;;
6133;SDS011;3098;42.678;23.364;2022-12-07T09:30:21;19.70;;;6.95;;
6133;SDS011;3098;42.678;23.364;2022-12-07T09:32:49;18.20;;;7.85;;
6133;SDS011;3098;42.678;23.364;2022-12-07T09:35:19;20.90;;;7.72;;
6133;SDS011;3098;42.678;23.364;2022-12-07T09:37:46;22.25;;;10.18;;
6133;SDS011;3098;42.678;23.364;2022-12-07T09:40:14;24.00;;;10.10;;
6133;SDS011;3098;42.678;23.364;2022-12-07T09:42:49;19.05;;;7.97;;
6133;SDS011;3098;42.678;23.364;2022-12-07T09:45:22;27.88;;;9.07;;
6133;SDS011;3098;42.678;23.364;2022-12-07T09:47:53;18.95;;;8.27;;
6133;SDS011;3098;42.678;23.364;2022-12-07T09:50:23;23.02;;;8.00;;
6133;SDS011;3098;42.678;23.364;2022-12-07T09:52:54;12.77;;;6.70;;
6133;SDS011;3098;42.678;23.364;2022-12-07T09:55:30;20.70;;;6.95;;
6133;SDS011;3098;42.678;23.364;2022-12-07T09:58:02;17.05;;;7.65;;
6133;SDS011;3098;42.678;23.364;2022-12-07T10:00:29;28.23;;;8.95;;
6133;SDS011;3098;42.678;23.364;2022-12-07T10:02:57;20.50;;;7.63;;
6133;SDS011;3098;42.678;23.364;2022-12-07T10:05:27;23.38;;;7.93;;
6133;SDS011;3098;42.678;23.364;2022-12-07T10:07:57;18.75;;;8.05;;
6133;SDS011;3098;42.678;23.364;2022-12-07T10:10:26;21.65;;;7.93;;
6133;SDS011;3098;42.678;23.364;2022-12-07T10:12:58;33.55;;;8.35;;
6133;SDS011;3098;42.678;23.364;2022-12-07T10:15:46;23.75;;;9.77;;
6133;SDS011;3098;42.678;23.364;2022-12-07T10:18:25;17.45;;;7.72;;
6133;SDS011;3098;42.678;23.364;2022-12-07T10:21:02;17.60;;;8.13;;
6133;SDS011;3098;42.678;23.364;2022-12-07T10:26:29;15.63;;;6.95;;
6133;SDS011;3098;42.678;23.364;2022-12-07T10:31:51;18.50;;;7.57;;
6133;SDS011;3098;42.678;23.364;2022-12-07T10:34:23;19.92;;;7.20;;
6133;SDS011;3098;42.678;23.364;2022-12-07T10:36:52;19.60;;;8.13;;
6133;SDS011;3098;42.678;23.364;2022-12-07T10:39:20;16.80;;;6.00;;
6133;SDS011;3098;42.678;23.364;2022-12-07T10:41:53;17.73;;;7.32;;
6133;SDS011;3098;42.678;23.364;2022-12-07T10:44:25;23.67;;;7.13;;
6133;SDS011;3098;42.678;23.364;2022-12-07T10:47:09;14.48;;;7.20;;
6133;SDS011;3098;42.678;23.364;2022-12-07T10:50:01;18.13;;;7.47;;
6133;SDS011;3098;42.678;23.364;2022-12-07T10:52:44;16.30;;;6.72;;
6133;SDS011;3098;42.678;23.364;2022-12-07T10:55:21;19.35;;;7.45;;
6133;SDS011;3098;42.678;23.364;2022-12-07T10:57:58;16.98;;;6.85;;
6133;SDS011;3098;42.678;23.364;2022-12-07T11:00:35;19.70;;;6.65;;
6133;SDS011;3098;42.678;23.364;2022-12-07T11:03:21;14.30;;;7.50;;
6133;SDS011;3098;42.678;23.364;2022-12-07T11:06:09;25.52;;;7.72;;
6133;SDS011;3098;42.678;23.364;2022-12-07T11:08:54;9.68;;;5.65;;
6133;SDS011;3098;42.678;23.364;2022-12-07T11:11:32;20.20;;;6.95;;
6133;SDS011;3098;42.678;23.364;2022-12-07T11:14:05;16.63;;;5.43;;
6133;SDS011;3098;42.678;23.364;2022-12-07T11:16:49;8.13;;;5.00;;
6133;SDS011;3098;42.678;23.364;2022-12-07T11:19:34;12.32;;;6.03;;
6133;SDS011;3098;42.678;23.364;2022-12-07T11:22:19;13.68;;;5.22;;
6133;SDS011;3098;42.678;23.364;2022-12-07T11:24:56;11.82;;;5.28;;
6133;SDS011;3098;42.678;23.364;2022-12-07T11:27:32;12.52;;;4.80;;
6133;SDS011;3098;42.678;23.364;2022-12-07T11:30:09;19.67;;;4.78;;
6133;SDS011;3098;42.678;23.364;2022-12-07T11:32:57;17.08;;;4.85;;
6133;SDS011;3098;42.678;23.364;2022-12-07T11:35:43;11.52;;;5.50;;
6133;SDS011;3098;42.678;23.364;2022-12-07T11:38:19;16.27;;;4.07;;
6133;SDS011;3098;42.678;23.364;2022-12-07T11:40:53;8.32;;;4.50;;
6133;SDS011;3098;42.678;23.364;2022-12-07T11:43:37;11.25;;;4.53;;
6133;SDS011;3098;42.678;23.364;2022-12-07T11:46:20;11.88;;;4.22;;
6133;SDS011;3098;42.678;23.364;2022-12-07T11:48:55;10.90;;;4.15;;
6133;SDS011;3098;42.678;23.364;2022-12-07T11:51:34;8.43;;;3.95;;
6133;SDS011;3098;42.678;23.364;2022-12-07T11:54:10;9.13;;;3.38;;
6133;SDS011;3098;42.678;23.364;2022-12-07T11:56:42;9.60;;;3.88;;
6133;SDS011;3098;42.678;23.364;2022-12-07T11:59:16;11.73;;;4.25;;
6133;SDS011;3098;42.678;23.364;2022-12-07T12:01:52;9.10;;;3.53;;
6133;SDS011;3098;42.678;23.364;2022-12-07T12:04:27;11.00;;;5.97;;
6133;SDS011;3098;42.678;23.364;2022-12-07T12:07:05;11.43;;;4.20;;
6133;SDS011;3098;42.678;23.364;2022-12-07T12:09:40;9.63;;;3.95;;
6133;SDS011;3098;42.678;23.364;2022-12-07T12:12:19;15.18;;;3.67;;
6133;SDS011;3098;42.678;23.364;2022-12-07T12:20:57;7.97;;;3.85;;
6133;SDS011;3098;42.678;23.364;2022-12-07T12:23:34;9.80;;;3.80;;
6133;SDS011;3098;42.678;23.364;2022-12-07T12:26:07;11.52;;;3.90;;
6133;SDS011;3098;42.678;23.364;2022-12-07T12:28:49;9.77;;;4.03;;
6133;SDS011;3098;42.678;23.364;2022-12-07T12:31:31;9.05;;;4.43;;
6133;SDS011;3098;42.678;23.364;2022-12-07T12:34:02;10.07;;;4.32;;
6133;SDS011;3098;42.678;23.364;2022-12-07T12:36:45;10.90;;;3.80;;
6133;SDS011;3098;42.678;23.364;2022-12-07T12:39:16;23.90;;;4.90;;
6133;SDS011;3098;42.678;23.364;2022-12-07T12:41:56;12.57;;;3.95;;
6133;SDS011;3098;42.678;23.364;2022-12-07T12:47:52;10.15;;;4.30;;
6133;SDS011;3098;42.678;23.364;2022-12-07T12:50:25;8.68;;;3.92;;
6133;SDS011;3098;42.678;23.364;2022-12-07T12:58:55;8.20;;;4.53;;
6133;SDS011;3098;42.678;23.364;2022-12-07T13:01:49;9.18;;;4.03;;
6133;SDS011;3098;42.678;23.364;2022-12-07T13:04:27;10.65;;;4.40;;
6133;SDS011;3098;42.678;23.364;2022-12-07T13:10:20;9.70;;;4.07;;
6133;SDS011;3098;42.678;23.364;2022-12-07T13:12:56;12.65;;;4.00;;
6133;SDS011;3098;42.678;23.364;2022-12-07T13:15:34;7.13;;;3.28;;
6133;SDS011;3098;42.678;23.364;2022-12-07T13:20:53;7.93;;;3.88;;
6133;SDS011;3098;42.678;23.364;2022-12-07T13:23:27;9.80;;;3.95;;
6133;SDS011;3098;42.678;23.364;2022-12-07T13:26:14;7.03;;;3.70;;
6133;SDS011;3098;42.678;23.364;2022-12-07T13:28:49;7.25;;;3.35;;
6133;SDS011;3098;42.678;23.364;2022-12-07T13:31:23;6.03;;;3.65;;
6133;SDS011;3098;42.678;23.364;2022-12-07T13:33:58;12.32;;;4.78;;
6133;SDS011;3098;42.678;23.364;2022-12-07T13:36:29;6.43;;;3.38;;
6133;SDS011;3098;42.678;23.364;2022-12-07T13:39:11;14.73;;;4.22;;
6133;SDS011;3098;42.678;23.364;2022-12-07T13:41:48;8.95;;;4.05;;
6133;SDS011;3098;42.678;23.364;2022-12-07T13:44:17;10.18;;;3.85;;
6133;SDS011;3098;42.678;23.364;2022-12-07T13:46:51;7.57;;;4.03;;
6133;SDS011;3098;42.678;23.364;2022-12-07T13:49:23;8.48;;;4.05;;
6133;SDS011;3098;42.678;23.364;2022-12-07T13:51:53;12.93;;;4.32;;
6133;SDS011;3098;42.678;23.364;2022-12-07T13:54:21;12.25;;;4.75;;
6133;SDS011;3098;42.678;23.364;2022-12-07T13:56:49;10.18;;;4.35;;
6133;SDS011;3098;42.678;23.364;2022-12-07T13:59:18;10.68;;;4.15;;
6133;SDS011;3098;42.678;23.364;2022-12-07T14:01:48;13.20;;;4.20;;
6133;SDS011;3098;42.678;23.364;2022-12-07T14:04:19;9.20;;;3.67;;
6133;SDS011;3098;42.678;23.364;2022-12-07T14:06:57;8.52;;;3.15;;
6133;SDS011;3098;42.678;23.364;2022-12-07T14:09:26;11.77;;;3.75;;
6133;SDS011;3098;42.678;23.364;2022-12-07T14:11:55;8.23;;;4.15;;
6133;SDS011;3098;42.678;23.364;2022-12-07T14:14:26;8.65;;;4.65;;
6133;SDS011;3098;42.678;23.364;2022-12-07T14:17:08;11.85;;;5.03;;
6133;SDS011;3098;42.678;23.364;2022-12-07T14:19:43;12.82;;;4.15;;
6133;SDS011;3098;42.678;23.364;2022-12-07T14:22:19;12.05;;;4.60;;
6133;SDS011;3098;42.678;23.364;2022-12-07T14:24:58;10.13;;;4.70;;
6133;SDS011;3098;42.678;23.364;2022-12-07T14:27:30;12.70;;;3.80;;
6133;SDS011;3098;42.678;23.364;2022-12-07T14:30:01;6.50;;;4.07;;
6133;SDS011;3098;42.678;23.364;2022-12-07T14:32:34;10.73;;;3.80;;
6133;SDS011;3098;42.678;23.364;2022-12-07T14:35:07;8.73;;;4.88;;
6133;SDS011;3098;42.678;23.364;2022-12-07T14:37:42;6.72;;;3.25;;
6133;SDS011;3098;42.678;23.364;2022-12-07T14:40:12;11.27;;;3.97;;
6133;SDS011;3098;42.678;23.364;2022-12-07T14:42:41;8.70;;;4.68;;
6133;SDS011;3098;42.678;23.364;2022-12-07T14:45:16;8.63;;;4.78;;
6133;SDS011;3098;42.678;23.364;2022-12-07T14:47:46;8.55;;;4.80;;
6133;SDS011;3098;42.678;23.364;2022-12-07T14:50:16;7.10;;;3.17;;
6133;SDS011;3098;42.678;23.364;2022-12-07T14:52:45;8.88;;;4.60;;
6133;SDS011;3098;42.678;23.364;2022-12-07T14:55:18;9.15;;;4.30;;
6133;SDS011;3098;42.678;23.364;2022-12-07T14:57:51;8.13;;;3.42;;
6133;SDS011;3098;42.678;23.364;2022-12-07T15:00:19;10.48;;;4.20;;
6133;SDS011;3098;42.678;23.364;2022-12-07T15:02:50;8.98;;;5.47;;
6133;SDS011;3098;42.678;23.364;2022-12-07T15:05:18;13.15;;;3.92;;
6133;SDS011;3098;42.678;23.364;2022-12-07T15:07:47;7.22;;;3.65;;
6133;SDS011;3098;42.678;23.364;2022-12-07T15:10:16;18.25;;;4.15;;
6133;SDS011;3098;42.678;23.364;2022-12-07T15:12:44;12.20;;;5.05;;
6133;SDS011;3098;42.678;23.364;2022-12-07T15:15:12;7.47;;;4.35;;
6133;SDS011;3098;42.678;23.364;2022-12-07T15:17:40;13.13;;;4.78;;
6133;SDS011;3098;42.678;23.364;2022-12-07T15:20:09;6.63;;;4.57;;
6133;SDS011;3098;42.678;23.364;2022-12-07T15:22:39;15.45;;;5.22;;
6133;SDS011;3098;42.678;23.364;2022-12-07T15:25:06;10.55;;;3.88;;
6133;SDS011;3098;42.678;23.364;2022-12-07T15:27:37;9.40;;;4.93;;
6133;SDS011;3098;42.678;23.364;2022-12-07T15:30:05;12.98;;;6.22;;
6133;SDS011;3098;42.678;23.364;2022-12-07T15:32:33;26.08;;;5.22;;
6133;SDS011;3098;42.678;23.364;2022-12-07T15:35:01;10.10;;;5.45;;
6133;SDS011;3098;42.678;23.364;2022-12-07T15:37:30;10.73;;;4.90;;
6133;SDS011;3098;42.678;23.364;2022-12-07T15:39:57;8.77;;;5.47;;
6133;SDS011;3098;42.678;23.364;2022-12-07T15:42:24;17.50;;;6.43;;
6133;SDS011;3098;42.678;23.364;2022-12-07T15:44:52;10.95;;;5.75;;
6133;SDS011;3098;42.678;23.364;2022-12-07T15:47:30;13.50;;;5.88;;